createdAt,value
2018-12-24T00:00:35.005Z,0.00
2018-12-24T00:01:34.928Z,0.00
2018-12-24T00:02:34.851Z,0.00
2018-12-24T00:03:34.774Z,0.00
2018-12-24T00:04:34.698Z,0.00
2018-12-24T00:05:34.622Z,0.00
2018-12-24T00:06:34.545Z,0.00
2018-12-24T00:07:34.468Z,0.00
2018-12-24T00:08:34.392Z,0.00
2018-12-24T00:09:34.316Z,0.00
2018-12-24T00:10:34.237Z,0.00
2018-12-24T00:11:34.161Z,0.00
2018-12-24T00:12:34.085Z,0.00
2018-12-24T00:13:34.010Z,0.00
2018-12-24T00:14:33.931Z,0.00
2018-12-24T00:15:33.855Z,0.00
2018-12-24T00:16:33.778Z,0.00
2018-12-24T00:17:33.701Z,0.00
2018-12-24T00:18:33.628Z,0.00
2018-12-24T00:19:35.356Z,0.00
2018-12-24T00:20:33.472Z,0.00
2018-12-24T00:21:33.395Z,0.00
2018-12-24T00:22:33.320Z,0.00
2018-12-24T00:23:33.241Z,0.00
2018-12-24T00:24:33.164Z,0.00
2018-12-24T00:25:33.087Z,0.00
2018-12-24T00:26:33.012Z,0.00
2018-12-24T00:27:32.935Z,0.00
2018-12-24T00:28:32.860Z,0.00
2018-12-24T00:29:32.781Z,0.00
2018-12-24T00:30:32.705Z,0.00
2018-12-24T00:31:32.626Z,0.00
2018-12-24T00:32:32.552Z,0.00
2018-12-24T00:33:32.474Z,0.00
2018-12-24T00:34:32.395Z,0.00
2018-12-24T00:35:32.319Z,0.00
2018-12-24T00:36:32.242Z,0.00
2018-12-24T00:37:32.164Z,0.00
2018-12-24T00:38:32.087Z,0.00
2018-12-24T00:39:32.259Z,0.00
2018-12-24T00:40:31.931Z,0.00
2018-12-24T00:41:31.854Z,0.00
2018-12-24T00:42:31.776Z,0.00
2018-12-24T00:43:31.698Z,0.00
2018-12-24T00:44:31.618Z,0.00
2018-12-24T00:45:31.540Z,0.00
2018-12-24T00:46:31.462Z,0.00
2018-12-24T00:47:31.384Z,0.00
2018-12-24T00:48:31.307Z,0.00
2018-12-24T00:49:31.228Z,0.00
2018-12-24T00:50:31.148Z,0.00
2018-12-24T00:51:31.070Z,0.00
2018-12-24T00:52:30.992Z,0.00
2018-12-24T00:53:30.913Z,0.00
2018-12-24T00:54:30.835Z,0.00
2018-12-24T00:55:30.754Z,0.00
2018-12-24T00:56:30.676Z,0.00
2018-12-24T00:57:30.596Z,0.00
2018-12-24T00:58:30.518Z,0.00
2018-12-24T00:59:30.442Z,0.00
2018-12-24T01:00:30.461Z,0.00
2018-12-24T01:01:30.281Z,0.00
2018-12-24T01:02:30.206Z,0.00
2018-12-24T01:03:30.122Z,0.00
2018-12-24T01:04:30.044Z,0.00
2018-12-24T01:05:29.965Z,0.00
2018-12-24T01:06:29.885Z,0.00
2018-12-24T01:07:29.806Z,0.00
2018-12-24T01:08:29.728Z,0.00
2018-12-24T01:09:29.648Z,0.00
2018-12-24T01:10:29.568Z,0.00
2018-12-24T01:11:29.489Z,0.00
2018-12-24T01:12:29.410Z,0.00
2018-12-24T01:13:29.333Z,0.00
2018-12-24T01:14:29.251Z,0.00
2018-12-24T01:15:29.171Z,0.00
2018-12-24T01:16:29.092Z,0.00
2018-12-24T01:17:29.014Z,0.00
2018-12-24T01:18:28.934Z,0.00
2018-12-24T01:19:28.854Z,0.00
2018-12-24T01:20:28.875Z,0.00
2018-12-24T01:21:28.695Z,0.00
2018-12-24T01:22:28.615Z,0.00
2018-12-24T01:23:28.536Z,0.00
2018-12-24T01:24:28.456Z,0.00
2018-12-24T01:25:28.378Z,0.00
2018-12-24T01:26:28.298Z,0.00
2018-12-24T01:27:28.217Z,0.00
2018-12-24T01:28:28.136Z,0.00
2018-12-24T01:29:28.058Z,0.00
2018-12-24T01:30:27.977Z,0.00
2018-12-24T01:31:27.899Z,0.00
2018-12-24T01:32:27.819Z,0.00
2018-12-24T01:33:27.739Z,0.00
2018-12-24T01:34:27.659Z,0.00
2018-12-24T01:35:27.580Z,0.00
2018-12-24T01:36:27.502Z,0.00
2018-12-24T01:37:27.421Z,0.00
2018-12-24T01:38:27.339Z,0.00
2018-12-24T01:39:27.260Z,0.00
2018-12-24T01:40:27.181Z,0.00
2018-12-24T01:41:27.100Z,0.00
2018-12-24T01:42:33.370Z,0.00
2018-12-24T01:43:26.940Z,0.00
2018-12-24T01:44:26.861Z,0.00
2018-12-24T01:45:26.780Z,0.00
2018-12-24T01:46:26.800Z,0.00
2018-12-24T01:47:26.620Z,0.00
2018-12-24T01:48:26.543Z,0.00
2018-12-24T01:49:26.461Z,0.00
2018-12-24T01:50:26.380Z,0.00
2018-12-24T01:51:26.299Z,0.00
2018-12-24T01:52:26.219Z,0.00
2018-12-24T01:53:26.143Z,0.00
2018-12-24T01:54:26.060Z,0.00
2018-12-24T01:55:25.979Z,0.00
2018-12-24T01:56:25.899Z,0.00
2018-12-24T01:57:25.819Z,0.00
2018-12-24T01:58:25.738Z,0.00
2018-12-24T01:59:25.659Z,0.00
2018-12-24T02:00:25.586Z,0.00
2018-12-24T02:01:25.500Z,0.00
2018-12-24T02:02:25.419Z,0.00
2018-12-24T02:03:25.339Z,0.00
2018-12-24T02:04:25.273Z,0.00
2018-12-24T02:05:25.180Z,0.00
2018-12-24T02:06:25.099Z,0.00
2018-12-24T02:07:25.020Z,0.00
2018-12-24T02:08:24.940Z,0.00
2018-12-24T02:09:24.867Z,0.00
2018-12-24T02:10:24.778Z,0.00
2018-12-24T02:11:24.697Z,0.00
2018-12-24T02:12:24.619Z,0.00
2018-12-24T02:13:24.538Z,0.00
2018-12-24T02:14:24.456Z,0.00
2018-12-24T02:15:24.376Z,0.00
2018-12-24T02:16:24.296Z,0.00
2018-12-24T02:17:24.215Z,0.00
2018-12-24T02:18:24.183Z,0.00
2018-12-24T02:19:24.055Z,0.00
2018-12-24T02:20:23.974Z,0.00
2018-12-24T02:21:23.893Z,0.00
2018-12-24T02:22:23.813Z,0.00
2018-12-24T02:23:23.731Z,0.00
2018-12-24T02:24:23.652Z,0.00
2018-12-24T02:25:23.572Z,0.00
2018-12-24T02:26:23.490Z,0.00
2018-12-24T02:27:23.410Z,0.00
2018-12-24T02:28:23.330Z,0.00
2018-12-24T02:29:23.250Z,0.00
2018-12-24T02:30:23.169Z,0.00
2018-12-24T02:31:23.088Z,0.00
2018-12-24T02:32:23.008Z,0.00
2018-12-24T02:33:22.929Z,0.00
2018-12-24T02:34:22.848Z,0.00
2018-12-24T02:35:22.770Z,0.00
2018-12-24T02:36:22.686Z,0.00
2018-12-24T02:37:22.606Z,0.00
2018-12-24T02:38:22.524Z,0.00
2018-12-24T02:39:22.443Z,0.00
2018-12-24T02:40:22.365Z,0.00
2018-12-24T02:41:22.283Z,0.00
2018-12-24T02:42:22.203Z,0.00
2018-12-24T02:43:22.121Z,0.00
2018-12-24T02:44:22.041Z,0.00
2018-12-24T02:45:21.971Z,0.00
2018-12-24T02:46:21.880Z,0.00
2018-12-24T02:47:41.002Z,0.00
2018-12-24T02:48:21.764Z,0.00
2018-12-24T02:49:21.887Z,0.00
2018-12-24T02:50:21.556Z,0.00
2018-12-24T02:51:21.476Z,0.00
2018-12-24T02:52:21.398Z,0.00
2018-12-24T02:53:21.317Z,0.00
2018-12-24T02:54:21.233Z,0.00
2018-12-24T02:55:21.153Z,0.00
2018-12-24T02:56:21.076Z,0.00
2018-12-24T02:57:21.013Z,0.00
2018-12-24T02:58:20.913Z,0.00
2018-12-24T02:59:20.837Z,0.00
2018-12-24T03:00:20.749Z,0.00
2018-12-24T03:01:20.670Z,0.00
2018-12-24T03:02:20.588Z,0.00
2018-12-24T03:03:20.508Z,0.00
2018-12-24T03:04:20.427Z,0.00
2018-12-24T03:05:20.347Z,0.00
2018-12-24T03:06:20.265Z,0.00
2018-12-24T03:07:20.184Z,0.00
2018-12-24T03:08:20.103Z,0.00
2018-12-24T03:09:20.175Z,0.00
2018-12-24T03:10:19.941Z,0.00
2018-12-24T03:11:19.860Z,0.00
2018-12-24T03:12:19.782Z,0.00
2018-12-24T03:13:19.700Z,0.00
2018-12-24T03:14:19.619Z,0.00
2018-12-24T03:15:19.538Z,0.00
2018-12-24T03:16:19.587Z,0.00
2018-12-24T03:17:19.379Z,0.00
2018-12-24T03:18:19.297Z,0.00
2018-12-24T03:19:19.217Z,0.00
2018-12-24T03:20:19.135Z,0.00
2018-12-24T03:21:19.061Z,0.00
2018-12-24T03:22:18.972Z,0.00
2018-12-24T03:23:18.892Z,0.00
2018-12-24T03:24:18.812Z,0.00
2018-12-24T03:25:18.731Z,0.00
2018-12-24T03:26:18.649Z,0.00
2018-12-24T03:27:18.570Z,0.00
2018-12-24T03:28:18.488Z,0.00
2018-12-24T03:29:18.408Z,0.00
2018-12-24T03:30:18.511Z,0.00
2018-12-24T03:31:18.514Z,0.00
2018-12-24T03:32:18.166Z,0.00
2018-12-24T03:33:18.095Z,0.00
2018-12-24T03:34:18.003Z,0.00
2018-12-24T03:35:17.921Z,0.00
2018-12-24T03:36:17.842Z,0.00
2018-12-24T03:37:17.761Z,0.00
2018-12-24T03:38:17.679Z,0.00
2018-12-24T03:39:17.599Z,0.00
2018-12-24T03:40:17.518Z,0.00
2018-12-24T03:41:17.435Z,0.00
2018-12-24T03:42:17.356Z,0.00
2018-12-24T03:43:17.273Z,0.00
2018-12-24T03:44:17.198Z,0.00
2018-12-24T03:45:17.112Z,0.00
2018-12-24T03:46:17.031Z,0.00
2018-12-24T03:47:16.949Z,0.00
2018-12-24T03:48:16.882Z,0.00
2018-12-24T03:49:16.787Z,0.00
2018-12-24T03:50:16.707Z,0.00
2018-12-24T03:51:16.624Z,0.00
2018-12-24T03:52:16.544Z,0.00
2018-12-24T03:53:16.464Z,0.00
2018-12-24T03:54:16.381Z,0.00
2018-12-24T03:55:16.300Z,0.00
2018-12-24T03:56:16.219Z,0.00
2018-12-24T03:57:16.141Z,0.00
2018-12-24T03:58:16.057Z,0.00
2018-12-24T03:59:15.976Z,0.00
2018-12-24T04:00:15.896Z,0.00
2018-12-24T04:01:15.813Z,0.00
2018-12-24T04:02:15.732Z,0.00
2018-12-24T04:03:15.650Z,0.00
2018-12-24T04:04:15.575Z,0.00
2018-12-24T04:05:15.492Z,0.00
2018-12-24T04:06:15.405Z,0.00
2018-12-24T04:07:15.326Z,0.00
2018-12-24T04:08:15.246Z,0.00
2018-12-24T04:09:15.176Z,0.00
2018-12-24T04:10:15.081Z,0.00
2018-12-24T04:11:15.000Z,0.00
2018-12-24T04:12:14.919Z,0.00
2018-12-24T04:13:22.475Z,0.00
2018-12-24T04:14:14.759Z,0.00
2018-12-24T04:15:14.677Z,0.00
2018-12-24T04:16:14.599Z,0.00
2018-12-24T04:17:14.515Z,0.00
2018-12-24T04:18:14.435Z,0.00
2018-12-24T04:19:14.353Z,0.00
2018-12-24T04:20:14.272Z,0.00
2018-12-24T04:21:14.191Z,0.00
2018-12-24T04:22:14.109Z,0.00
2018-12-24T04:23:14.028Z,0.00
2018-12-24T04:24:13.947Z,0.00
2018-12-24T04:25:13.866Z,0.00
2018-12-24T04:26:13.784Z,0.00
2018-12-24T04:27:13.704Z,0.00
2018-12-24T04:28:13.625Z,0.00
2018-12-24T04:29:13.542Z,0.00
2018-12-24T04:30:13.460Z,0.00
2018-12-24T04:31:13.379Z,0.00
2018-12-24T04:32:13.301Z,0.00
2018-12-24T04:33:13.217Z,0.00
2018-12-24T04:34:13.136Z,0.00
2018-12-24T04:35:13.055Z,0.00
2018-12-24T04:36:12.974Z,0.00
2018-12-24T04:37:12.892Z,0.00
2018-12-24T04:38:12.810Z,0.00
2018-12-24T04:39:12.729Z,0.00
2018-12-24T04:40:12.648Z,0.00
2018-12-24T04:41:12.567Z,0.00
2018-12-24T04:42:12.486Z,0.00
2018-12-24T04:43:12.405Z,0.00
2018-12-24T04:44:12.325Z,0.00
2018-12-24T04:45:12.250Z,0.00
2018-12-24T04:46:12.161Z,0.00
2018-12-24T04:47:12.079Z,0.00
2018-12-24T04:48:11.999Z,0.00
2018-12-24T04:49:11.917Z,0.00
2018-12-24T04:50:11.835Z,0.00
2018-12-24T04:51:11.754Z,0.00
2018-12-24T04:52:11.672Z,0.00
2018-12-24T04:53:11.592Z,0.00
2018-12-24T04:54:11.512Z,0.00
2018-12-24T04:55:11.428Z,0.00
2018-12-24T04:56:11.351Z,0.00
2018-12-24T04:57:11.266Z,0.00
2018-12-24T04:58:11.186Z,0.00
2018-12-24T04:59:11.104Z,0.00
2018-12-24T05:00:11.022Z,0.00
2018-12-24T05:01:10.942Z,0.00
2018-12-24T05:02:10.858Z,0.00
2018-12-24T05:03:10.777Z,0.00
2018-12-24T05:04:10.696Z,0.00
2018-12-24T05:05:10.665Z,0.00
2018-12-24T05:06:10.532Z,0.00
2018-12-24T05:07:10.452Z,0.00
2018-12-24T05:08:10.369Z,0.00
2018-12-24T05:09:10.287Z,0.00
2018-12-24T05:10:10.206Z,0.00
2018-12-24T05:11:10.126Z,0.00
2018-12-24T05:12:10.044Z,0.00
2018-12-24T05:13:09.961Z,0.00
2018-12-24T05:14:09.880Z,0.00
2018-12-24T05:15:09.799Z,0.00
2018-12-24T05:16:09.718Z,0.00
2018-12-24T05:17:09.787Z,0.00
2018-12-24T05:18:09.555Z,0.00
2018-12-24T05:19:09.514Z,0.00
2018-12-24T05:20:09.393Z,0.00
2018-12-24T05:21:09.385Z,0.00
2018-12-24T05:22:09.230Z,0.00
2018-12-24T05:23:09.155Z,0.00
2018-12-24T05:24:09.068Z,0.00
2018-12-24T05:25:08.986Z,0.00
2018-12-24T05:26:08.904Z,0.00
2018-12-24T05:27:08.823Z,0.00
2018-12-24T05:28:08.743Z,0.00
2018-12-24T05:29:08.662Z,0.00
2018-12-24T05:30:08.580Z,0.00
2018-12-24T05:31:08.500Z,0.00
2018-12-24T05:32:08.418Z,0.00
2018-12-24T05:33:08.338Z,0.00
2018-12-24T05:34:08.254Z,0.00
2018-12-24T05:35:08.176Z,0.00
2018-12-24T05:36:08.095Z,0.00
2018-12-24T05:37:08.016Z,0.00
2018-12-24T05:38:07.931Z,0.00
2018-12-24T05:39:07.853Z,0.00
2018-12-24T05:40:07.771Z,0.00
2018-12-24T05:41:07.689Z,0.00
2018-12-24T05:42:07.607Z,0.00
2018-12-24T05:43:07.526Z,0.00
2018-12-24T05:44:07.444Z,0.00
2018-12-24T05:45:07.364Z,0.00
2018-12-24T05:46:07.281Z,0.00
2018-12-24T05:47:07.200Z,0.00
2018-12-24T05:48:07.120Z,0.00
2018-12-24T05:49:07.040Z,0.00
2018-12-24T05:50:06.957Z,0.00
2018-12-24T05:51:06.877Z,0.00
2018-12-24T05:52:06.797Z,0.00
2018-12-24T05:53:06.714Z,0.00
2018-12-24T05:54:06.632Z,0.00
2018-12-24T05:55:06.553Z,0.00
2018-12-24T05:56:06.474Z,0.00
2018-12-24T05:57:06.391Z,0.00
2018-12-24T05:58:06.309Z,0.00
2018-12-24T05:59:06.229Z,0.00
2018-12-24T06:00:06.152Z,0.00
2018-12-24T06:01:06.066Z,0.00
2018-12-24T06:02:06.002Z,0.00
2018-12-24T06:03:05.903Z,0.00
2018-12-24T06:04:05.824Z,0.00
2018-12-24T06:05:05.743Z,0.00
2018-12-24T06:06:05.661Z,0.00
2018-12-24T06:07:05.580Z,0.00
2018-12-24T06:08:05.500Z,0.00
2018-12-24T06:09:05.419Z,0.00
2018-12-24T06:10:05.337Z,0.00
2018-12-24T06:11:05.256Z,0.00
2018-12-24T06:12:05.176Z,0.00
2018-12-24T06:13:05.096Z,0.00
2018-12-24T06:14:05.013Z,0.00
2018-12-24T06:15:04.933Z,0.00
2018-12-24T06:16:04.853Z,0.00
2018-12-24T06:17:04.772Z,0.00
2018-12-24T06:18:04.689Z,0.00
2018-12-24T06:19:04.611Z,0.00
2018-12-24T06:20:04.528Z,0.00
2018-12-24T06:21:04.447Z,0.00
2018-12-24T06:22:04.365Z,0.00
2018-12-24T06:23:04.285Z,0.00
2018-12-24T06:24:04.206Z,0.00
2018-12-24T06:25:04.127Z,0.00
2018-12-24T06:26:04.043Z,0.00
2018-12-24T06:27:03.964Z,0.00
2018-12-24T06:28:03.881Z,0.00
2018-12-24T06:29:03.803Z,0.00
2018-12-24T06:30:03.769Z,0.00
2018-12-24T06:31:03.639Z,0.00
2018-12-24T06:32:03.559Z,0.00
2018-12-24T06:33:03.479Z,0.00
2018-12-24T06:34:03.396Z,0.00
2018-12-24T06:35:03.317Z,0.00
2018-12-24T06:36:03.239Z,0.00
2018-12-24T06:37:03.154Z,0.00
2018-12-24T06:38:03.092Z,0.00
2018-12-24T06:39:02.993Z,0.00
2018-12-24T06:40:02.917Z,0.00
2018-12-24T06:41:02.833Z,0.00
2018-12-24T06:42:02.802Z,0.00
2018-12-24T06:43:02.671Z,0.00
2018-12-24T06:44:06.700Z,0.00
2018-12-24T06:45:02.509Z,0.00
2018-12-24T06:46:02.428Z,0.00
2018-12-24T06:47:02.348Z,0.00
2018-12-24T06:48:02.266Z,0.00
2018-12-24T06:49:02.188Z,0.00
2018-12-24T06:50:02.105Z,0.00
2018-12-24T06:51:02.023Z,0.00
2018-12-24T06:52:01.944Z,0.00
2018-12-24T06:53:01.989Z,0.00
2018-12-24T06:54:01.783Z,0.00
2018-12-24T06:55:01.704Z,0.00
2018-12-24T06:56:01.623Z,0.00
2018-12-24T06:57:01.543Z,4.00
2018-12-24T06:58:01.464Z,4.00
2018-12-24T06:59:01.380Z,4.00
2018-12-24T07:00:01.300Z,4.00
2018-12-24T07:01:01.220Z,4.00
2018-12-24T07:02:01.140Z,4.00
2018-12-24T07:03:01.059Z,4.00
2018-12-24T07:04:00.978Z,8.00
2018-12-24T07:05:00.904Z,4.00
2018-12-24T07:06:00.818Z,8.00
2018-12-24T07:07:00.736Z,8.00
2018-12-24T07:08:00.655Z,12.00
2018-12-24T07:09:00.576Z,16.00
2018-12-24T07:10:00.495Z,16.00
2018-12-24T07:11:00.416Z,20.00
2018-12-24T07:12:00.338Z,24.00
2018-12-24T07:13:00.252Z,28.00
2018-12-24T07:14:00.173Z,28.00
2018-12-24T07:15:00.142Z,32.00
2018-12-24T07:16:00.011Z,36.00
2018-12-24T07:16:59.932Z,40.00
2018-12-24T07:17:59.854Z,44.00
2018-12-24T07:18:59.769Z,40.00
2018-12-24T07:19:59.688Z,48.00
2018-12-24T07:20:59.608Z,48.00
2018-12-24T07:21:59.527Z,60.00
2018-12-24T07:22:59.446Z,64.00
2018-12-24T07:23:59.366Z,64.00
2018-12-24T07:24:59.286Z,68.00
2018-12-24T07:25:59.204Z,80.00
2018-12-24T07:26:59.126Z,84.00
2018-12-24T07:27:59.094Z,88.00
2018-12-24T07:28:59.389Z,92.00
2018-12-24T07:29:58.883Z,100.00
2018-12-24T07:30:58.801Z,112.00
2018-12-24T07:31:58.721Z,112.00
2018-12-24T07:32:58.640Z,128.00
2018-12-24T07:33:58.559Z,136.00
2018-12-24T07:34:58.479Z,136.00
2018-12-24T07:35:58.398Z,144.00
2018-12-24T07:36:58.318Z,144.00
2018-12-24T07:37:58.236Z,152.00
2018-12-24T07:38:58.156Z,164.00
2018-12-24T07:39:58.076Z,168.00
2018-12-24T07:40:57.996Z,176.00
2018-12-24T07:41:57.914Z,184.00
2018-12-24T07:42:57.834Z,180.00
2018-12-24T07:43:57.754Z,192.00
2018-12-24T07:44:57.674Z,208.00
2018-12-24T07:45:57.593Z,216.00
2018-12-24T07:46:57.512Z,228.00
2018-12-24T07:47:57.431Z,236.00
2018-12-24T07:48:57.351Z,248.00
2018-12-24T07:49:57.269Z,280.00
2018-12-24T07:50:57.191Z,328.00
2018-12-24T07:51:57.112Z,344.00
2018-12-24T07:52:57.029Z,356.00
2018-12-24T07:53:56.947Z,364.00
2018-12-24T07:54:56.872Z,384.00
2018-12-24T07:55:56.787Z,380.00
2018-12-24T07:56:56.707Z,364.00
2018-12-24T07:57:56.626Z,356.00
2018-12-24T07:58:56.545Z,356.00
2018-12-24T07:59:56.464Z,408.00
2018-12-24T08:00:56.385Z,432.00
2018-12-24T08:01:56.302Z,452.00
2018-12-24T08:02:56.225Z,480.00
2018-12-24T08:03:56.142Z,508.00
2018-12-24T08:04:56.061Z,504.00
2018-12-24T08:05:55.982Z,496.00
2018-12-24T08:06:55.902Z,484.00
2018-12-24T08:07:55.820Z,520.00
2018-12-24T08:08:55.738Z,564.00
2018-12-24T08:09:55.658Z,564.00
2018-12-24T08:10:55.577Z,564.00
2018-12-24T08:11:55.496Z,588.00
2018-12-24T08:12:55.416Z,580.00
2018-12-24T08:13:55.333Z,592.00
2018-12-24T08:14:55.254Z,636.00
2018-12-24T08:15:55.172Z,648.00
2018-12-24T08:16:55.167Z,640.00
2018-12-24T08:17:55.009Z,692.00
2018-12-24T08:18:54.928Z,720.00
2018-12-24T08:19:54.848Z,668.00
2018-12-24T08:20:54.767Z,648.00
2018-12-24T08:21:54.685Z,712.00
2018-12-24T08:22:54.603Z,812.00
2018-12-24T08:23:54.525Z,828.00
2018-12-24T08:24:54.443Z,828.00
2018-12-24T08:25:54.362Z,872.00
2018-12-24T08:26:54.282Z,920.00
2018-12-24T08:27:54.200Z,860.00
2018-12-24T08:28:54.119Z,816.00
2018-12-24T08:29:54.036Z,780.00
2018-12-24T08:30:53.957Z,776.00
2018-12-24T08:31:53.877Z,804.00
2018-12-24T08:32:53.795Z,792.00
2018-12-24T08:33:53.723Z,748.00
2018-12-24T08:34:53.634Z,724.00
2018-12-24T08:35:53.553Z,724.00
2018-12-24T08:36:53.473Z,728.00
2018-12-24T08:37:53.391Z,740.00
2018-12-24T08:38:53.311Z,796.00
2018-12-24T08:39:53.229Z,864.00
2018-12-24T08:40:53.150Z,932.00
2018-12-24T08:41:53.117Z,944.00
2018-12-24T08:42:52.987Z,932.00
2018-12-24T08:43:52.906Z,920.00
2018-12-24T08:44:52.826Z,904.00
2018-12-24T08:45:52.744Z,968.00
2018-12-24T08:46:52.664Z,1036.00
2018-12-24T08:47:52.584Z,1116.00
2018-12-24T08:48:52.502Z,1188.00
2018-12-24T08:49:52.420Z,1136.00
2018-12-24T08:50:52.342Z,1044.00
2018-12-24T08:51:52.259Z,988.00
2018-12-24T08:52:52.179Z,976.00
2018-12-24T08:53:52.099Z,1000.00
2018-12-24T08:54:52.017Z,984.00
2018-12-24T08:55:51.937Z,912.00
2018-12-24T08:56:51.855Z,872.00
2018-12-24T08:57:51.774Z,892.00
2018-12-24T08:58:51.699Z,928.00
2018-12-24T08:59:51.614Z,968.00
2018-12-24T09:00:51.532Z,1020.00
2018-12-24T09:01:51.451Z,1008.00
2018-12-24T09:02:51.370Z,1004.00
2018-12-24T09:03:51.291Z,1040.00
2018-12-24T09:04:51.208Z,1048.00
2018-12-24T09:05:51.128Z,1064.00
2018-12-24T09:06:51.047Z,1120.00
2018-12-24T09:07:50.968Z,1108.00
2018-12-24T09:08:50.888Z,1072.00
2018-12-24T09:09:50.805Z,1040.00
2018-12-24T09:10:50.725Z,1024.00
2018-12-24T09:11:50.643Z,1008.00
2018-12-24T09:12:50.562Z,924.00
2018-12-24T09:13:50.481Z,832.00
2018-12-24T09:14:50.616Z,880.00
2018-12-24T09:15:50.320Z,1072.00
2018-12-24T09:16:50.241Z,1412.00
2018-12-24T09:17:50.162Z,1708.00
2018-12-24T09:18:50.078Z,1776.00
2018-12-24T09:19:49.999Z,1968.00
2018-12-24T09:20:52.698Z,2184.00
2018-12-24T09:21:49.835Z,2200.00
2018-12-24T09:22:49.757Z,2124.00
2018-12-24T09:23:49.676Z,2040.00
2018-12-24T09:24:49.595Z,2216.00
2018-12-24T09:25:49.514Z,2260.00
2018-12-24T09:26:49.435Z,2396.00
2018-12-24T09:27:49.354Z,2392.00
2018-12-24T09:28:49.273Z,2228.00
2018-12-24T09:29:49.193Z,2268.00
2018-12-24T09:30:49.116Z,2408.00
2018-12-24T09:31:49.034Z,2412.00
2018-12-24T09:32:48.955Z,2364.00
2018-12-24T09:33:48.872Z,2320.00
2018-12-24T09:34:48.792Z,2504.00
2018-12-24T09:35:48.718Z,2488.00
2018-12-24T09:36:48.633Z,2588.00
2018-12-24T09:37:48.553Z,2768.00
2018-12-24T09:38:48.576Z,2628.00
2018-12-24T09:39:48.454Z,2300.00
2018-12-24T09:40:48.314Z,2108.00
2018-12-24T09:41:48.232Z,2016.00
2018-12-24T09:42:48.153Z,2140.00
2018-12-24T09:43:48.073Z,2232.00
2018-12-24T09:44:47.994Z,2196.00
2018-12-24T09:45:47.914Z,2276.00
2018-12-24T09:46:47.834Z,2332.00
2018-12-24T09:47:47.754Z,2584.00
2018-12-24T09:48:47.675Z,2936.00
2018-12-24T09:49:47.594Z,3096.00
2018-12-24T09:50:47.518Z,3152.00
2018-12-24T09:51:47.435Z,3156.00
2018-12-24T09:52:47.355Z,3504.00
2018-12-24T09:53:47.274Z,3768.00
2018-12-24T09:54:47.195Z,3844.00
2018-12-24T09:55:47.116Z,4364.00
2018-12-24T09:56:47.036Z,4596.00
2018-12-24T09:57:47.052Z,3888.00
2018-12-24T09:58:46.877Z,3332.00
2018-12-24T09:59:46.847Z,3384.00
2018-12-24T10:00:46.719Z,3448.00
2018-12-24T10:01:46.637Z,3416.00
2018-12-24T10:02:46.559Z,3360.00
2018-12-24T10:03:46.480Z,3512.00
2018-12-24T10:04:46.402Z,3692.00
2018-12-24T10:05:46.320Z,3664.00
2018-12-24T10:06:46.240Z,3676.00
2018-12-24T10:07:46.162Z,3540.00
2018-12-24T10:08:46.083Z,3276.00
2018-12-24T10:09:46.000Z,3164.00
2018-12-24T10:10:45.925Z,3432.00
2018-12-24T10:11:45.841Z,3644.00
2018-12-24T10:12:45.764Z,3828.00
2018-12-24T10:13:45.684Z,4108.00
2018-12-24T10:14:45.601Z,4492.00
2018-12-24T10:15:45.522Z,4620.00
2018-12-24T10:16:45.443Z,4916.00
2018-12-24T10:17:45.362Z,5144.00
2018-12-24T10:18:45.286Z,5348.00
2018-12-24T10:19:45.207Z,5584.00
2018-12-24T10:20:45.125Z,5768.00
2018-12-24T10:21:45.043Z,5840.00
2018-12-24T10:22:44.965Z,6760.00
2018-12-24T10:23:44.885Z,6668.00
2018-12-24T10:24:44.807Z,8220.00
2018-12-24T10:25:44.728Z,8020.00
2018-12-24T10:26:44.648Z,7012.00
2018-12-24T10:27:44.569Z,8224.00
2018-12-24T10:28:44.489Z,9188.00
2018-12-24T10:29:44.410Z,9500.00
2018-12-24T10:30:44.332Z,9300.00
2018-12-24T10:31:44.253Z,9168.00
2018-12-24T10:32:44.174Z,8368.00
2018-12-24T10:33:44.096Z,6692.00
2018-12-24T10:34:44.017Z,5376.00
2018-12-24T10:35:43.940Z,5000.00
2018-12-24T10:36:43.862Z,4784.00
2018-12-24T10:37:43.783Z,3936.00
2018-12-24T10:38:43.706Z,3568.00
2018-12-24T10:39:43.630Z,3468.00
2018-12-24T10:40:43.550Z,3500.00
2018-12-24T10:41:43.471Z,3708.00
2018-12-24T10:42:43.393Z,3900.00
2018-12-24T10:43:43.317Z,3792.00
2018-12-24T10:44:43.237Z,3896.00
2018-12-24T10:45:43.157Z,3868.00
2018-12-24T10:46:43.081Z,3676.00
2018-12-24T10:47:43.001Z,3416.00
2018-12-24T10:48:42.922Z,3332.00
2018-12-24T10:49:42.842Z,3448.00
2018-12-24T10:50:42.765Z,3592.00
2018-12-24T10:51:42.685Z,3860.00
2018-12-24T10:52:42.609Z,3968.00
2018-12-24T10:53:42.526Z,4052.00
2018-12-24T10:54:42.447Z,4408.00
2018-12-24T10:55:42.393Z,4704.00
2018-12-24T10:56:42.290Z,4632.00
2018-12-24T10:57:42.210Z,4368.00
2018-12-24T10:58:42.132Z,4128.00
2018-12-24T10:59:42.055Z,4332.00
2018-12-24T11:00:41.977Z,4880.00
2018-12-24T11:01:41.894Z,5096.00
2018-12-24T11:02:41.813Z,4756.00
2018-12-24T11:03:41.735Z,4376.00
2018-12-24T11:04:41.654Z,3956.00
2018-12-24T11:05:41.575Z,3664.00
2018-12-24T11:06:41.495Z,3176.00
2018-12-24T11:07:41.416Z,2800.00
2018-12-24T11:08:41.336Z,2788.00
2018-12-24T11:09:41.257Z,3184.00
2018-12-24T11:10:41.178Z,3620.00
2018-12-24T11:11:41.098Z,3688.00
2018-12-24T11:12:41.020Z,3756.00
2018-12-24T11:13:40.939Z,3952.00
2018-12-24T11:14:40.860Z,4492.00
2018-12-24T11:15:40.781Z,4640.00
2018-12-24T11:16:40.702Z,4548.00
2018-12-24T11:17:40.668Z,4468.00
2018-12-24T11:18:40.542Z,4332.00
2018-12-24T11:19:40.462Z,4120.00
2018-12-24T11:20:40.383Z,4064.00
2018-12-24T11:21:40.403Z,4032.00
2018-12-24T11:22:40.224Z,4384.00
2018-12-24T11:23:40.144Z,4704.00
2018-12-24T11:24:40.067Z,4420.00
2018-12-24T11:25:39.984Z,3872.00
2018-12-24T11:26:39.906Z,3540.00
2018-12-24T11:27:40.176Z,3400.00
2018-12-24T11:28:39.750Z,3180.00
2018-12-24T11:29:39.667Z,3212.00
2018-12-24T11:30:39.587Z,3524.00
2018-12-24T11:31:39.510Z,3940.00
2018-12-24T11:32:39.429Z,4364.00
2018-12-24T11:33:39.350Z,4728.00
2018-12-24T11:34:39.269Z,5284.00
2018-12-24T11:35:39.190Z,5352.00
2018-12-24T11:36:39.112Z,4896.00
2018-12-24T11:37:39.031Z,4264.00
2018-12-24T11:38:38.953Z,3876.00
2018-12-24T11:39:38.873Z,3616.00
2018-12-24T11:40:38.797Z,3452.00
2018-12-24T11:41:38.714Z,3724.00
2018-12-24T11:42:38.633Z,3940.00
2018-12-24T11:43:38.555Z,3980.00
2018-12-24T11:44:38.479Z,4028.00
2018-12-24T11:45:38.397Z,3936.00
2018-12-24T11:46:38.317Z,4344.00
2018-12-24T11:47:38.238Z,4596.00
2018-12-24T11:48:38.162Z,4432.00
2018-12-24T11:49:38.079Z,4608.00
2018-12-24T11:50:37.999Z,5188.00
2018-12-24T11:51:37.920Z,5708.00
2018-12-24T11:52:37.840Z,5952.00
2018-12-24T11:53:37.761Z,6080.00
2018-12-24T11:54:37.682Z,6280.00
2018-12-24T11:55:37.608Z,6480.00
2018-12-24T11:56:37.527Z,6112.00
2018-12-24T11:57:37.444Z,5648.00
2018-12-24T11:58:37.364Z,5756.00
2018-12-24T11:59:37.287Z,5384.00
2018-12-24T12:00:37.207Z,4836.00
2018-12-24T12:01:37.126Z,5220.00
2018-12-24T12:02:37.048Z,5532.00
2018-12-24T12:03:36.968Z,5268.00
2018-12-24T12:04:36.892Z,5076.00
2018-12-24T12:05:36.811Z,5320.00
2018-12-24T12:06:36.731Z,5752.00
2018-12-24T12:07:36.652Z,6176.00
2018-12-24T12:08:36.574Z,6556.00
2018-12-24T12:09:36.593Z,6948.00
2018-12-24T12:10:36.413Z,7696.00
2018-12-24T12:11:36.337Z,8260.00
2018-12-24T12:12:36.257Z,7676.00
2018-12-24T12:13:36.178Z,6364.00
2018-12-24T12:14:36.099Z,5272.00
2018-12-24T12:15:42.506Z,5052.00
2018-12-24T12:16:35.943Z,5536.00
2018-12-24T12:17:35.860Z,6056.00
2018-12-24T12:18:35.782Z,6160.00
2018-12-24T12:19:35.704Z,5812.00
2018-12-24T12:20:35.626Z,5028.00
2018-12-24T12:21:35.595Z,4516.00
2018-12-24T12:22:35.467Z,4480.00
2018-12-24T12:23:35.388Z,4232.00
2018-12-24T12:24:35.313Z,3656.00
2018-12-24T12:25:35.232Z,3264.00
2018-12-24T12:26:35.152Z,2928.00
2018-12-24T12:27:35.328Z,2564.00
2018-12-24T12:28:34.996Z,2264.00
2018-12-24T12:29:34.915Z,2208.00
2018-12-24T12:30:34.835Z,2204.00
2018-12-24T12:31:34.759Z,2088.00
2018-12-24T12:32:34.681Z,1996.00
2018-12-24T12:33:36.002Z,1992.00
2018-12-24T12:34:34.520Z,2080.00
2018-12-24T12:35:34.441Z,2108.00
2018-12-24T12:36:34.363Z,1988.00
2018-12-24T12:37:34.283Z,1972.00
2018-12-24T12:38:34.204Z,2052.00
2018-12-24T12:39:34.275Z,2176.00
2018-12-24T12:40:34.048Z,2192.00
2018-12-24T12:41:33.966Z,2160.00
2018-12-24T12:42:33.888Z,2168.00
2018-12-24T12:43:33.808Z,2172.00
2018-12-24T12:44:33.729Z,2188.00
2018-12-24T12:45:33.650Z,2224.00
2018-12-24T12:46:33.570Z,2208.00
2018-12-24T12:47:33.491Z,2184.00